Terminal Aerodrome Forecast
Issued by NWS

Current Version | Previous Version | Text Only | Print | Product List | Glossary Off
Versions: 1 2 3 4 5 6 7 8 9 10 11 12 13 14 15 16 17 18 19 20 21 22 23 24 25

000
FTUS41 KRNK 191216 AAA
TAFLWB
TAF AMD
KLWB 191216Z 1912/2012 00000KT 5SM BR OVC012
     FM191500 29005KT P6SM BKN030
     FM191800 29008KT P6SM BKN040 BKN080
     FM200000 VRB03KT P6SM SCT035
     FM200800 00000KT 3SM BR SCT025=

USA.gov is the U.S. government's official web portal to all federal, state and local government web resources and services.